Time;durP1;ratioP1;P1;durP2;ratioP2;P2;SDS_P1;SDS_P2;PMS_P1;PMS_P2;Temp;Humidity;BMP_temperature;BMP_pressure;BME280_temperature;BME280_humidity;BME280_pressure;Samples;Min_cycle;Max_cycle;Signal;HPM_P1;HPM_P2
2022/05/23 00:00:33;;;;;;;3.20;3.00;;;;;;;18.60;79.64;98840.22;5006211;28;20201;-66
2022/05/23 00:02:59;;;;;;;3.30;3.00;;;;;;;18.59;79.90;98838.56;5011175;28;20757;-66
2022/05/23 00:05:27;;;;;;;3.40;2.80;;;;;;;18.56;79.51;98840.53;5011131;28;20260;-66
2022/05/23 00:07:55;;;;;;;2.60;2.50;;;;;;;18.56;79.64;98843.97;5011058;28;20221;-66
2022/05/23 00:10:23;;;;;;;2.67;2.57;;;;;;;18.58;79.67;98847.28;5011039;28;20199;-66
2022/05/23 00:12:50;;;;;;;4.37;2.63;;;;;;;18.62;79.45;98847.88;5010325;28;20210;-66
2022/05/23 00:15:18;;;;;;;2.40;2.30;;;;;;;18.62;79.39;98848.72;5010930;28;20198;-65
2022/05/23 00:17:45;;;;;;;3.37;3.07;;;;;;;18.54;79.52;98840.66;5011178;28;20225;-66
2022/05/23 00:20:14;;;;;;;2.93;2.83;;;;;;;18.35;79.77;98822.13;5011035;28;20205;-66
2022/05/23 00:22:41;;;;;;;3.10;3.00;;;;;;;18.36;80.14;98841.94;5011576;28;20228;-66
2022/05/23 00:25:10;;;;;;;3.20;3.00;;;;;;;18.25;80.52;98847.06;5010586;28;20224;-66
2022/05/23 00:27:40;;;;;;;3.93;3.73;;;;;;;18.12;81.49;98835.88;5011357;28;20658;-66
2022/05/23 00:30:09;;;;;;;3.50;3.30;;;;;;;18.09;81.93;98836.09;5010992;28;20198;-65
2022/05/23 00:35:20;;;;;;;2.73;2.63;;;;;;;17.72;84.80;98830.84;5010957;28;20204;-66
2022/05/23 00:37:49;;;;;;;3.10;3.00;;;;;;;17.53;86.56;98825.22;5010284;28;20230;-66
2022/05/23 00:40:32;;;;;;;4.07;3.67;;;;;;;17.48;86.84;98827.28;5010843;28;20229;-66
2022/05/23 00:43:14;;;;;;;3.20;3.07;;;;;;;17.44;87.33;98831.03;5010425;28;20653;-65
2022/05/23 00:45:42;;;;;;;2.70;2.60;;;;;;;17.28;88.69;98830.38;5009580;28;20202;-65
2022/05/23 00:48:10;;;;;;;3.10;3.00;;;;;;;17.21;89.35;98834.31;5010903;28;20194;-66
2022/05/23 00:50:39;;;;;;;3.43;3.13;;;;;;;17.24;89.08;98832.34;5010787;28;20202;-66
2022/05/23 00:53:09;;;;;;;2.90;2.80;;;;;;;17.18;89.57;98830.16;5010773;28;20201;-65
2022/05/23 00:55:40;;;;;;;3.13;3.03;;;;;;;17.19;89.54;98838.75;5010766;28;20199;-65
2022/05/23 00:58:13;;;;;;;3.03;2.93;;;;;;;17.20;88.99;98830.88;5010735;28;20228;-65
2022/05/23 01:00:40;;;;;;;3.97;3.77;;;;;;;17.31;88.58;98833.59;5010407;28;20582;-66
2022/05/23 01:03:11;;;;;;;3.57;3.37;;;;;;;17.27;88.88;98833.91;5010664;28;20229;-66
2022/05/23 01:05:39;;;;;;;3.00;2.90;;;;;;;17.26;88.97;98834.81;5010305;28;20206;-66
2022/05/23 01:08:06;;;;;;;3.40;3.10;;;;;;;17.18;88.95;98819.81;5009797;28;20217;-65
2022/05/23 01:10:36;;;;;;;3.53;3.23;;;;;;;17.24;88.98;98823.75;5008606;28;20227;-65
2022/05/23 01:13:03;;;;;;;3.30;3.20;;;;;;;17.22;88.48;98825.63;5009530;28;20201;-65
2022/05/23 01:15:32;;;;;;;4.03;3.83;;;;;;;17.21;88.56;98818.78;5010258;28;20194;-65
2022/05/23 01:18:00;;;;;;;3.60;3.30;;;;;;;17.17;89.14;98822.47;5010495;28;20614;-66
2022/05/23 01:20:28;;;;;;;3.20;3.10;;;;;;;17.00;89.76;98809.81;5010425;28;20590;-65
2022/05/23 01:23:12;;;;;;;3.40;3.10;;;;;;;16.93;89.78;98814.56;5010074;28;20252;-66
2022/05/23 01:25:42;;;;;;;3.73;3.53;;;;;;;16.90;90.49;98808.78;5007544;28;20216;-66
2022/05/23 01:28:11;;;;;;;4.43;3.43;;;;;;;16.78;91.42;98813.81;5010322;28;20281;-65
2022/05/23 01:30:40;;;;;;;4.10;3.90;;;;;;;16.67;92.09;98824.00;5009235;28;20207;-65
2022/05/23 01:33:08;;;;;;;3.20;3.10;;;;;;;16.70;91.77;98808.28;5008902;28;20210;-65
2022/05/23 01:35:35;;;;;;;5.30;4.43;;;;;;;16.60;92.93;98812.41;5010431;28;20206;-65
2022/05/23 01:38:02;;;;;;;5.37;4.20;;;;;;;16.53;93.47;98815.44;5009114;28;20621;-65
2022/05/23 01:40:29;;;;;;;3.97;3.77;;;;;;;16.40;94.47;98807.63;5009617;28;20653;-65
2022/05/23 01:42:58;;;;;;;4.10;3.90;;;;;;;16.42;94.61;98808.34;5008597;28;20213;-65
2022/05/23 01:45:27;;;;;;;4.40;4.00;;;;;;;16.40;95.01;98811.97;5013705;28;20577;-65
2022/05/23 01:47:54;;;;;;;4.23;3.93;;;;;;;16.51;95.28;98810.34;5013910;28;20202;-65
2022/05/23 01:50:23;;;;;;;5.10;4.47;;;;;;;16.60;94.81;98817.59;5013856;28;20202;-66
2022/05/23 01:52:50;;;;;;;3.37;3.13;;;;;;;16.66;94.49;98812.00;5012980;28;20264;-65
2022/05/23 01:55:17;;;;;;;4.30;4.00;;;;;;;16.72;93.70;98815.94;5013479;28;20200;-65
2022/05/23 01:57:45;;;;;;;4.37;4.17;;;;;;;16.86;93.49;98812.47;5013564;28;20220;-66
2022/05/23 02:02:58;;;;;;;4.30;4.10;;;;;;;16.96;92.49;98814.38;5013460;28;20349;-66
2022/05/23 02:05:25;;;;;;;3.47;3.33;;;;;;;16.93;91.99;98811.97;5013318;28;20202;-65
2022/05/23 02:07:53;;;;;;;4.20;4.00;;;;;;;16.90;91.73;98813.94;5013374;28;20272;-65
2022/05/23 02:10:21;;;;;;;3.67;3.57;;;;;;;16.73;91.84;98792.56;5013358;28;20256;-65
2022/05/23 02:12:48;;;;;;;5.40;3.97;;;;;;;16.89;91.23;98805.34;5013602;28;20579;-65
2022/05/23 02:15:16;;;;;;;4.00;3.63;;;;;;;16.93;91.27;98805.97;5013204;28;20198;-65
2022/05/23 02:17:44;;;;;;;3.57;3.37;;;;;;;16.89;91.01;98807.94;5013230;28;20213;-65
2022/05/23 02:20:12;;;;;;;4.57;4.17;;;;;;;16.94;90.49;98810.22;5012725;28;20201;-66
2022/05/23 02:22:39;;;;;;;10.13;3.90;;;;;;;16.74;90.08;98776.09;5013513;28;20287;-65
2022/05/23 02:25:07;;;;;;;3.57;3.27;;;;;;;16.99;89.82;98813.34;5013115;28;20203;-65
2022/05/23 02:27:34;;;;;;;4.00;3.67;;;;;;;16.99;89.62;98808.16;5012954;28;20198;-66
2022/05/23 02:30:01;;;;;;;4.03;3.73;;;;;;;16.99;89.27;98808.16;5012893;28;20289;-66
2022/05/23 02:32:30;;;;;;;4.77;4.50;;;;;;;16.88;89.20;98797.66;5013291;28;20604;-66
2022/05/23 02:34:57;;;;;;;4.10;3.80;;;;;;;16.92;89.56;98802.56;5011500;28;20206;-65
2022/05/23 02:37:24;;;;;;;5.10;4.80;;;;;;;16.44;89.49;98733.25;5011044;28;20230;-65
2022/05/23 02:39:51;;;;;;;4.83;4.47;;;;;;;16.90;89.32;98808.78;5012861;28;20198;-66
2022/05/23 02:42:18;;;;;;;6.43;4.73;;;;;;;16.85;89.48;98810.81;5012667;28;20198;-65
2022/05/23 02:44:46;;;;;;;4.70;4.40;;;;;;;16.85;89.45;98808.22;5012862;28;20205;-65
2022/05/23 02:47:13;;;;;;;5.00;4.70;;;;;;;16.58;89.98;98772.84;5012509;28;20200;-66
2022/05/23 02:49:41;;;;;;;4.60;4.20;;;;;;;16.73;90.16;98802.94;5012691;28;20201;-66
2022/05/23 02:52:09;;;;;;;4.20;4.00;;;;;;;16.62;90.21;98784.66;5013087;28;20196;-65
2022/05/23 02:54:35;;;;;;;5.10;4.60;;;;;;;16.68;90.91;98810.16;5012551;28;20194;-65
2022/05/23 02:57:02;;;;;;;4.47;4.27;;;;;;;16.70;90.71;98813.44;5011833;28;20269;-66
2022/05/23 02:59:29;;;;;;;4.40;4.10;;;;;;;16.66;90.77;98806.00;5012117;28;20199;-66
2022/05/23 03:04:43;;;;;;;4.20;3.90;;;;;;;16.68;90.49;98801.53;5012067;28;20205;-65
2022/05/23 03:07:11;;;;;;;6.20;4.10;;;;;;;16.66;91.00;98796.47;5011950;28;20214;-65
2022/05/23 03:09:38;;;;;;;10.43;5.37;;;;;;;16.63;91.36;98809.63;5012288;28;20204;-65
2022/05/23 03:12:06;;;;;;;7.87;5.37;;;;;;;16.56;92.10;98812.69;5011357;28;20581;-65
2022/05/23 03:14:33;;;;;;;5.10;4.57;;;;;;;16.48;93.67;98813.13;5010654;28;20206;-65
2022/05/23 03:17:03;;;;;;;5.37;4.87;;;;;;;16.46;94.06;98799.47;5009776;28;20198;-66
2022/05/23 03:19:30;;;;;;;4.87;4.67;;;;;;;16.40;95.14;98797.28;5012156;28;20198;-65
2022/05/23 03:27:27;;;;;;;4.47;4.27;;;;;;;16.33;96.68;98798.59;5011932;28;20207;-65
2022/05/23 03:29:54;;;;;;;4.77;4.37;;;;;;;16.31;97.33;98800.44;5010358;28;20209;-65
2022/05/23 03:32:23;;;;;;;4.93;4.63;;;;;;;16.30;97.09;98803.97;5010309;28;20198;-65
2022/05/23 03:34:50;;;;;;;30.33;6.23;;;;;;;16.27;96.88;98793.81;5009124;28;20212;-65
2022/05/23 03:37:21;;;;;;;4.97;4.77;;;;;;;16.40;96.92;98810.22;5011880;28;20307;-65
2022/05/23 03:39:48;;;;;;;4.63;4.43;;;;;;;16.43;96.38;98807.44;5011280;28;20205;-65
2022/05/23 03:42:15;;;;;;;4.73;4.53;;;;;;;16.47;96.38;98797.72;5011210;28;20194;-66
2022/05/23 03:44:42;;;;;;;4.80;4.60;;;;;;;16.64;95.50;98813.84;5011691;28;20207;-66
2022/05/23 03:47:09;;;;;;;5.07;4.87;;;;;;;16.74;94.90;98811.50;5011380;28;20297;-66
2022/05/23 03:49:36;;;;;;;4.90;4.50;;;;;;;16.81;94.46;98812.78;5011374;28;20208;-66
2022/05/23 03:52:03;;;;;;;5.37;5.10;;;;;;;16.86;93.96;98812.47;5011441;28;20675;-65
2022/05/23 03:54:31;;;;;;;4.77;4.10;;;;;;;16.87;93.58;98814.13;5011560;28;20693;-66
2022/05/23 03:57:00;;;;;;;4.63;4.23;;;;;;;16.83;93.63;98804.91;5010914;28;20209;-66
2022/05/23 03:59:27;;;;;;;4.20;4.00;;;;;;;17.00;93.06;98818.41;5011178;28;20195;-66
2022/05/23 04:01:57;;;;;;;4.73;4.53;;;;;;;17.16;92.45;98823.41;5010994;28;20198;-66
2022/05/23 04:04:24;;;;;;;4.83;4.27;;;;;;;17.31;91.62;98819.81;5011482;28;20198;-66
2022/05/23 04:06:51;;;;;;;4.50;4.30;;;;;;;17.44;91.36;98823.25;5010936;28;20216;-65
2022/05/23 04:09:18;;;;;;;4.70;4.30;;;;;;;17.56;91.32;98830.22;5011336;28;20252;-66
2022/05/23 04:11:47;;;;;;;4.73;4.43;;;;;;;17.71;90.53;98824.00;5010878;28;20201;-66
2022/05/23 04:14:14;;;;;;;4.50;4.20;;;;;;;17.94;89.07;98826.75;5010654;28;20194;-66
2022/05/23 04:16:45;;;;;;;5.07;4.73;;;;;;;18.09;87.93;98828.31;5011086;28;20209;-66
2022/05/23 04:19:12;;;;;;;4.10;3.90;;;;;;;18.16;87.04;98825.16;5013783;28;20313;-66
2022/05/23 04:21:41;;;;;;;4.60;4.27;;;;;;;18.16;86.97;98837.28;5010803;28;20217;-66
2022/05/23 04:24:08;;;;;;;4.37;4.17;;;;;;;18.19;86.46;98834.53;5010622;28;20198;-66
2022/05/23 04:26:35;;;;;;;4.47;4.20;;;;;;;18.21;86.39;98837.81;5010758;28;20213;-66
2022/05/23 04:29:06;;;;;;;4.17;3.97;;;;;;;18.24;86.86;98816.84;5009149;28;20341;-66
2022/05/23 04:31:33;;;;;;;4.23;4.03;;;;;;;18.41;86.57;98833.81;5007061;28;20630;-66
2022/05/23 04:36:44;;;;;;;4.17;3.77;;;;;;;18.45;86.92;98825.69;5008493;28;20213;-66
2022/05/23 04:39:11;;;;;;;4.63;4.43;;;;;;;18.50;87.22;98818.47;5008129;28;20237;-66
2022/05/23 04:41:38;;;;;;;4.50;4.30;;;;;;;18.56;87.87;98812.00;5008661;28;20213;-66
2022/05/23 04:44:07;;;;;;;3.90;3.70;;;;;;;18.45;87.17;98768.59;5010000;28;20212;-66
2022/05/23 04:46:34;;;;;;;3.80;3.53;;;;;;;18.81;85.83;98812.69;5009077;28;20288;-66
2022/05/23 04:51:45;;;;;;;4.90;4.60;;;;;;;18.84;84.86;98812.47;5010369;28;20285;-66
2022/05/23 04:54:12;;;;;;;4.73;4.43;;;;;;;18.92;85.66;98819.72;5010538;28;20685;-66
2022/05/23 04:56:39;;;;;;;4.43;4.17;;;;;;;18.98;86.02;98811.47;5010303;28;20194;-66
2022/05/23 04:59:07;;;;;;;4.83;4.43;;;;;;;19.05;85.52;98798.84;5010680;28;20228;-66
2022/05/23 05:01:34;;;;;;;4.53;4.33;;;;;;;19.14;86.18;98799.00;5010522;28;20206;-67
2022/05/23 05:04:01;;;;;;;4.80;4.27;;;;;;;19.17;84.40;98798.75;5010932;28;21129;-66
2022/05/23 05:06:28;;;;;;;4.73;4.43;;;;;;;19.33;84.31;98793.25;5010384;28;20245;-66
2022/05/23 05:08:55;;;;;;;3.93;3.83;;;;;;;19.49;83.16;98783.38;5010062;28;20218;-66
2022/05/23 05:11:22;;;;;;;4.20;4.00;;;;;;;19.92;83.63;98807.75;5010071;28;20202;-66
2022/05/23 05:13:48;;;;;;;3.97;3.67;;;;;;;20.23;80.20;98800.13;5009987;28;20202;-66
2022/05/23 05:16:19;;;;;;;4.50;4.10;;;;;;;20.61;77.46;98808.38;5010043;28;20666;-66
2022/05/23 05:18:46;;;;;;;5.50;4.07;;;;;;;20.90;76.21;98812.00;5011021;28;20210;-66
2022/05/23 05:21:13;;;;;;;5.80;4.97;;;;;;;21.11;75.04;98808.63;5014239;28;20202;-67
2022/05/23 05:23:40;;;;;;;3.80;3.60;;;;;;;21.46;74.05;98814.34;5015741;28;20288;-67
2022/05/23 05:26:06;;;;;;;3.97;3.67;;;;;;;21.67;71.45;98788.25;5012598;28;20207;-67
2022/05/23 05:28:34;;;;;;;17.03;4.73;;;;;;;22.06;69.22;98808.34;5013986;28;20205;-67
2022/05/23 05:31:06;;;;;;;3.53;3.33;;;;;;;22.35;70.34;98803.19;5012661;28;20218;-67
2022/05/23 05:33:39;;;;;;;11.60;3.43;;;;;;;22.70;66.95;98818.38;5011689;28;20199;-67
2022/05/23 05:36:11;;;;;;;3.37;3.27;;;;;;;23.04;63.25;98822.22;5011476;28;20210;-68
2022/05/23 05:38:44;;;;;;;3.60;3.40;;;;;;;23.29;63.22;98810.38;5012478;28;20723;-76
2022/05/23 05:41:17;;;;;;;3.50;3.30;;;;;;;23.57;62.22;98813.91;5009401;28;20210;-68
2022/05/23 05:43:48;;;;;;;2.97;2.87;;;;;;;23.79;61.99;98817.00;5012724;28;20678;-64
2022/05/23 05:46:21;;;;;;;2.60;2.50;;;;;;;24.01;61.97;98808.78;5008706;28;20246;-62
2022/05/23 05:48:51;;;;;;;2.57;2.43;;;;;;;24.26;61.06;98819.59;5012322;28;20190;-62
2022/05/23 05:51:22;;;;;;;3.40;3.10;;;;;;;24.46;59.83;98814.06;5013029;28;20201;-62
2022/05/23 05:53:51;;;;;;;2.43;2.33;;;;;;;24.60;59.99;98810.13;5007771;28;20734;-62
2022/05/23 05:56:18;;;;;;;2.53;2.43;;;;;;;24.72;56.81;98808.91;5012476;28;20581;-62
2022/05/23 05:58:46;;;;;;;2.17;2.07;;;;;;;24.85;53.95;98803.34;5012894;28;20228;-62
2022/05/23 06:01:13;;;;;;;2.83;2.60;;;;;;;24.99;53.66;98798.38;5012449;28;20206;-62
2022/05/23 06:03:40;;;;;;;2.97;2.77;;;;;;;25.07;55.83;98798.44;5012252;28;20228;-62
2022/05/23 06:11:37;;;;;;;2.50;2.40;;;;;;;25.51;51.59;98806.34;5012603;28;20214;-62
2022/05/23 06:14:05;;;;;;;2.20;2.10;;;;;;;25.64;53.53;98800.66;5011992;28;20210;-63
2022/05/23 06:16:35;;;;;;;2.60;2.50;;;;;;;25.83;52.24;98809.13;5011965;28;20205;-62
2022/05/23 06:19:02;;;;;;;2.67;2.57;;;;;;;25.89;53.83;98794.53;5011839;28;20218;-62
2022/05/23 06:21:30;;;;;;;2.10;2.00;;;;;;;26.16;51.22;98802.25;5012307;28;20198;-62
2022/05/23 06:23:57;;;;;;;2.60;2.10;;;;;;;26.36;49.55;98805.44;5010609;28;20206;-63
2022/05/23 06:26:27;;;;;;;1.90;1.83;;;;;;;26.51;50.74;98798.56;5011394;28;20206;-64
2022/05/23 06:28:54;;;;;;;2.20;2.10;;;;;;;26.51;49.13;98793.28;5010278;28;20214;-63
2022/05/23 06:31:22;;;;;;;1.97;1.87;;;;;;;26.63;50.76;98789.38;5009300;28;20214;-63
2022/05/23 06:33:49;;;;;;;2.07;1.97;;;;;;;26.58;47.89;98789.88;5010935;28;20590;-63
2022/05/23 06:36:18;;;;;;;1.97;1.87;;;;;;;26.49;49.93;98771.63;5010322;28;20626;-64
2022/05/23 06:38:47;;;;;;;1.90;1.90;;;;;;;26.52;48.01;98781.81;5009453;28;20714;-64
2022/05/23 06:41:15;;;;;;;9.23;2.63;;;;;;;26.60;48.09;98781.81;5009379;28;20211;-63
2022/05/23 06:43:44;;;;;;;2.20;2.10;;;;;;;26.70;48.19;98782.47;5010978;28;20217;-64
2022/05/23 06:46:13;;;;;;;2.20;2.07;;;;;;;26.78;46.30;98787.75;5009539;28;20211;-62
2022/05/23 06:48:42;;;;;;;1.67;1.57;;;;;;;26.85;45.83;98788.75;5009807;28;20206;-63
2022/05/23 06:51:09;;;;;;;1.80;1.70;;;;;;;26.93;44.14;98786.13;5010722;28;20293;-62
2022/05/23 06:53:37;;;;;;;3.00;1.80;;;;;;;26.96;44.30;98785.81;5010828;28;20214;-68
2022/05/23 06:56:05;;;;;;;1.80;1.70;;;;;;;27.19;44.03;98780.69;5011330;28;20666;-69
2022/05/23 06:58:32;;;;;;;10.53;4.33;;;;;;;27.37;43.88;98783.13;5010260;28;20222;-69
2022/05/23 07:00:59;;;;;;;10.53;4.00;;;;;;;27.54;42.05;98785.59;5011435;28;20296;-70
2022/05/23 07:03:26;;;;;;;44.93;9.67;;;;;;;27.36;40.42;98787.59;5011290;28;20208;-70
2022/05/23 07:14:18;;;;;;;3.27;1.40;;;;;;;27.90;42.93;98785.97;5011987;28;20212;-68
2022/05/23 07:16:45;;;;;;;1.60;1.50;;;;;;;28.20;41.97;98796.75;5010605;28;20209;-67
2022/05/23 07:19:11;;;;;;;2.27;1.40;;;;;;;28.37;40.55;98782.50;5010383;28;20225;-71
2022/05/23 07:21:38;;;;;;;1.50;1.43;;;;;;;28.49;38.09;98783.72;5010370;28;20591;-71
2022/05/23 07:24:06;;;;;;;1.13;1.13;;;;;;;28.41;39.18;98781.13;5010174;28;20293;-71
2022/05/23 07:26:37;;;;;;;1.70;1.60;;;;;;;28.61;39.86;98783.16;5009232;28;20205;-71
2022/05/23 07:29:04;;;;;;;1.83;1.37;;;;;;;28.79;37.77;98785.50;5011060;28;20198;-71
2022/05/23 07:31:30;;;;;;;1.40;1.30;;;;;;;28.89;38.66;98778.16;5011607;28;20721;-71
2022/05/23 07:33:57;;;;;;;1.60;1.60;;;;;;;28.88;37.00;98781.81;5010694;28;20209;-71
2022/05/23 07:36:25;;;;;;;1.30;1.30;;;;;;;28.94;37.44;98780.28;5011404;28;20198;-71
2022/05/23 07:38:52;;;;;;;4.37;1.37;;;;;;;29.06;38.03;98784.97;5011837;28;20230;-71
2022/05/23 07:41:19;;;;;;;5.23;1.70;;;;;;;28.98;38.94;98782.38;5010298;28;20679;-72
2022/05/23 07:43:47;;;;;;;1.67;1.43;;;;;;;29.09;37.68;98784.59;5009955;28;20293;-71
2022/05/23 07:46:15;;;;;;;1.13;1.13;;;;;;;29.18;39.99;98778.25;5010624;28;20220;-71
2022/05/23 07:48:45;;;;;;;4.33;1.77;;;;;;;29.13;41.00;98779.78;5010792;28;20209;-72
2022/05/23 07:51:13;;;;;;;1.60;1.50;;;;;;;29.12;40.03;98773.69;5009380;28;20760;-69
2022/05/23 08:02:10;;;;;;;5.43;1.50;;;;;;;29.79;37.55;98773.66;4961758;28;20219;-70
2022/05/23 08:04:38;;;;;;;2.63;1.63;;;;;;;29.45;36.13;98768.13;4984224;28;20586;-70
2022/05/23 08:07:05;;;;;;;1.40;1.30;;;;;;;29.32;37.46;98758.19;5007884;28;20210;-71
2022/05/23 08:09:32;;;;;;;1.40;1.40;;;;;;;29.37;36.34;98769.00;5009374;28;20678;-70
2022/05/23 08:11:59;;;;;;;1.33;1.23;;;;;;;29.49;37.21;98766.75;5008917;28;20694;-71
2022/05/23 08:14:27;;;;;;;1.30;1.30;;;;;;;29.65;39.38;98753.38;5007681;28;20206;-72
2022/05/23 08:16:54;;;;;;;1.20;1.20;;;;;;;29.65;37.29;98758.66;5006305;28;20202;-71
2022/05/23 08:19:21;;;;;;;1.53;1.00;;;;;;;29.78;33.34;98745.63;5006726;28;20233;-74
2022/05/23 08:21:51;;;;;;;1.27;1.13;;;;;;;29.88;33.86;98759.41;5007602;28;20217;-69
2022/05/23 08:24:18;;;;;;;6.73;1.70;;;;;;;29.72;32.94;98754.28;5008092;28;20214;-70
2022/05/23 08:26:45;;;;;;;1.70;1.03;;;;;;;29.61;33.05;98762.66;5008899;28;20209;-69
2022/05/23 08:29:12;;;;;;;3.70;1.13;;;;;;;29.36;31.52;98748.06;5010513;28;20206;-71
2022/05/23 08:31:41;;;;;;;2.50;1.00;;;;;;;29.38;31.59;98751.34;5010478;28;20206;-68
2022/05/23 08:34:08;;;;;;;4.43;1.10;;;;;;;29.49;32.07;98754.38;5009156;28;20202;-70
2022/05/23 08:36:35;;;;;;;0.77;0.77;;;;;;;29.63;33.14;98748.25;5008896;28;20198;-69
2022/05/23 08:39:03;;;;;;;1.50;0.70;;;;;;;29.84;31.35;98742.25;5009988;28;20233;-72
2022/05/23 08:41:34;;;;;;;0.80;0.80;;;;;;;30.03;31.43;98744.31;5010709;28;20201;-71
2022/05/23 08:44:06;;;;;;;1.07;1.07;;;;;;;30.12;30.51;98751.13;5007918;28;20210;-72
2022/05/23 08:46:44;;;;;;;0.80;0.80;;;;;;;30.03;29.38;98757.53;5009634;28;20691;-72
2022/05/23 08:49:37;;;;;;;1.40;0.80;;;;;;;30.02;31.15;98750.59;5011035;28;20201;-72
2022/05/23 08:52:12;;;;;;;4.20;0.80;;;;;;;30.07;29.96;98742.94;5008675;28;20206;-68
2022/05/23 08:54:48;;;;;;;3.50;1.23;;;;;;;30.11;31.05;98741.56;5008652;28;20209;-70
2022/05/23 08:57:28;;;;;;;1.53;1.23;;;;;;;30.20;32.30;98742.28;5005479;28;20202;-70
2022/05/23 08:59:58;;;;;;;1.87;1.00;;;;;;;30.24;30.59;98732.97;5008733;28;20221;-69
2022/05/23 09:02:34;;;;;;;1.10;1.00;;;;;;;30.26;30.45;98732.78;5004639;28;20228;-69
2022/05/23 09:05:07;;;;;;;0.97;0.97;;;;;;;30.24;31.15;98740.09;5007214;28;20228;-70
2022/05/23 09:07:40;;;;;;;1.47;1.37;;;;;;;30.30;32.05;98731.41;4999791;28;20245;-70
2022/05/23 09:10:14;;;;;;;1.63;1.10;;;;;;;30.25;32.25;98729.31;4986935;28;20194;-71
2022/05/23 09:12:41;;;;;;;0.73;0.73;;;;;;;30.25;30.18;98726.66;4986199;28;20207;-70
2022/05/23 09:15:08;;;;;;;1.63;0.67;;;;;;;30.37;30.80;98732.28;4987691;28;20198;-70
2022/05/23 09:17:42;;;;;;;2.37;1.07;;;;;;;30.45;30.09;98718.97;4990130;28;20265;-70
2022/05/23 09:20:14;;;;;;;4.10;1.40;;;;;;;30.55;30.55;98728.22;4987128;28;20218;-70
2022/05/23 09:22:47;;;;;;;1.67;1.33;;;;;;;30.47;30.92;98728.34;4987898;28;20698;-70
2022/05/23 09:25:17;;;;;;;0.77;0.77;;;;;;;30.57;31.85;98707.66;4988715;28;20214;-70
2022/05/23 09:27:48;;;;;;;0.90;0.90;;;;;;;30.62;29.82;98715.06;4986643;28;20218;-69
2022/05/23 09:30:19;;;;;;;0.82;0.82;;;;;;;30.66;29.78;98714.47;4990043;28;20667;-71
2022/05/23 09:32:52;;;;;;;7.40;1.33;;;;;;;30.70;30.22;98714.91;4989622;28;20217;-72
2022/05/23 09:35:23;;;;;;;0.90;0.83;;;;;;;30.75;31.03;98714.34;4989064;28;20253;-68
2022/05/23 09:38:05;;;;;;;0.70;0.70;;;;;;;30.92;30.16;98713.84;4986728;28;20207;-69
2022/05/23 09:40:37;;;;;;;0.70;0.70;;;;;;;31.07;31.15;98709.34;4987134;28;20594;-69
2022/05/23 09:49:08;;;;;;;1.83;0.87;;;;;;;30.83;31.29;98717.66;4987860;28;20286;-69
2022/05/23 09:51:49;;;;;;;1.02;1.02;;;;;;;30.52;30.37;98722.50;4985717;28;20280;-68
2022/05/23 09:54:20;;;;;;;0.83;0.83;;;;;;;30.50;33.05;98714.72;4983198;28;20599;-68
2022/05/23 09:56:48;;;;;;;1.27;1.20;;;;;;;30.49;31.17;98715.75;4981661;28;20232;-69
2022/05/23 09:59:24;;;;;;;0.90;0.90;;;;;;;30.50;31.62;98720.00;4987841;28;20606;-68
2022/05/23 10:01:52;;;;;;;1.07;1.07;;;;;;;30.65;30.93;98719.97;4981433;28;20638;-69
2022/05/23 10:04:24;;;;;;;1.93;0.80;;;;;;;30.77;32.96;98694.59;4983233;28;20265;-68
2022/05/23 10:06:52;;;;;;;0.93;0.93;;;;;;;30.62;32.26;98685.94;4987259;28;20705;-72
2022/05/23 10:09:26;;;;;;;1.15;1.13;;;;;;;30.65;30.83;98704.91;5009193;28;20225;-71
2022/05/23 10:11:56;;;;;;;1.13;1.13;;;;;;;30.38;33.67;98686.28;5011110;28;20229;-71
2022/05/23 10:14:25;;;;;;;1.67;1.13;;;;;;;30.35;33.14;98692.78;5009075;28;20198;-71
2022/05/23 10:16:54;;;;;;;1.17;1.17;;;;;;;30.39;33.97;98698.53;5011090;28;20206;-71
2022/05/23 10:19:31;;;;;;;1.17;1.17;;;;;;;30.44;33.02;98696.16;5010038;28;20317;-71
2022/05/23 10:22:15;;;;;;;1.10;1.10;;;;;;;30.29;33.40;98698.00;5010437;28;20336;-71
2022/05/23 10:24:49;;;;;;;1.80;0.80;;;;;;;30.34;34.70;98695.63;5009947;28;20249;-68
2022/05/23 10:27:22;;;;;;;1.00;1.00;;;;;;;30.50;32.69;98690.91;5010436;28;20206;-69
2022/05/23 10:29:54;;;;;;;0.90;0.90;;;;;;;30.72;33.36;98678.50;5008693;28;20674;-71
2022/05/23 10:32:29;;;;;;;1.30;1.30;;;;;;;30.76;32.95;98674.44;5009503;28;20209;-71
2022/05/23 10:35:06;;;;;;;1.23;1.10;;;;;;;30.63;33.14;98680.44;5009456;28;20698;-71
2022/05/23 10:37:37;;;;;;;5.60;1.47;;;;;;;30.41;32.98;98675.38;5009547;28;20632;-71
2022/05/23 10:42:58;;;;;;;1.13;1.13;;;;;;;30.31;34.30;98669.56;5009825;28;20213;-72
2022/05/23 10:45:33;;;;;;;1.20;1.20;;;;;;;30.48;33.98;98671.78;5009540;28;20609;-72
2022/05/23 10:48:39;;;;;;;1.40;1.30;;;;;;;30.70;33.64;98675.22;5009791;28;20202;-72
2022/05/23 10:51:14;;;;;;;2.95;2.80;;;;;;;30.91;34.33;98672.53;4978210;28;20702;-72
2022/05/23 10:54:01;;;;;;;1.03;1.03;;;;;;;31.05;33.67;98658.38;5009407;28;20233;-71
2022/05/23 10:56:41;;;;;;;3.50;1.30;;;;;;;31.04;33.06;98667.34;5010018;28;20226;-72
2022/05/23 10:59:11;;;;;;;1.30;1.20;;;;;;;30.93;32.16;98665.22;5009052;28;20209;-71
2022/05/23 11:01:56;;;;;;;1.30;1.30;;;;;;;31.01;32.67;98667.75;5009440;28;20210;-66
2022/05/23 11:04:38;;;;;;;0.95;0.93;;;;;;;30.92;33.80;98663.56;5009717;28;20202;-71
2022/05/23 11:07:28;;;;;;;1.20;1.17;;;;;;;30.65;31.93;98659.94;5009292;28;21020;-72
2022/05/23 11:10:07;;;;;;;1.13;1.00;;;;;;;30.76;33.89;98658.56;5008749;28;20589;-71
2022/05/23 11:12:42;;;;;;;0.90;0.90;;;;;;;30.98;34.26;98657.56;5008226;28;20221;-65
2022/05/23 11:15:24;;;;;;;0.90;0.90;;;;;;;31.15;33.08;98650.91;5006805;28;20205;-63
2022/05/23 11:17:58;;;;;;;2.72;1.15;;;;;;;31.07;30.51;98651.09;5008101;28;20672;-63
2022/05/23 11:20:29;;;;;;;0.77;0.77;;;;;;;31.23;30.43;98656.06;5007998;28;20224;-63
2022/05/23 11:23:04;;;;;;;0.95;0.93;;;;;;;31.23;30.19;98648.13;5009411;28;20206;-63
2022/05/23 11:25:36;;;;;;;0.83;0.83;;;;;;;31.20;33.18;98629.97;5008423;28;20205;-63
2022/05/23 11:33:47;;;;;;;2.00;1.20;;;;;;;31.21;33.51;98631.59;5010810;28;20716;-63
2022/05/23 11:36:24;;;;;;;1.20;1.10;;;;;;;31.02;32.63;98637.59;5010865;28;20682;-64
2022/05/23 11:38:53;;;;;;;0.95;0.90;;;;;;;31.11;32.10;98630.34;5011089;28;20205;-64
2022/05/23 11:41:39;;;;;;;1.17;1.17;;;;;;;31.30;33.09;98629.63;5007195;28;20629;-63
2022/05/23 11:44:31;;;;;;;1.00;1.00;;;;;;;31.39;31.96;98624.94;5009751;28;20232;-63
2022/05/23 11:47:09;;;;;;;0.88;0.88;;;;;;;31.31;31.20;98630.44;5009830;28;20213;-64
2022/05/23 11:49:43;;;;;;;1.33;1.30;;;;;;;31.17;32.25;98632.19;5009776;28;20209;-65
2022/05/23 11:52:23;;;;;;;0.87;0.87;;;;;;;31.16;31.47;98628.72;5008682;28;20202;-65
2022/05/23 11:54:50;;;;;;;5.22;1.23;;;;;;;31.24;29.49;98631.19;5012290;28;20205;-65
2022/05/23 11:57:33;;;;;;;0.70;0.70;;;;;;;31.33;31.79;98623.91;5012249;28;20202;-65
2022/05/23 12:00:07;;;;;;;1.48;0.85;;;;;;;31.39;31.19;98630.25;5011228;28;20218;-64
2022/05/23 12:02:39;;;;;;;0.90;0.90;;;;;;;31.40;30.13;98631.91;5012681;28;20719;-65
2022/05/23 12:05:30;;;;;;;0.93;0.90;;;;;;;31.35;28.93;98627.19;5012470;28;20213;-64
2022/05/23 12:08:03;;;;;;;1.15;0.90;;;;;;;31.38;30.23;98625.97;5012250;28;20230;-63
2022/05/23 12:11:01;;;;;;;1.00;0.80;;;;;;;31.13;29.23;98629.13;5009888;28;20198;-63
2022/05/23 12:13:51;;;;;;;0.82;0.70;;;;;;;30.80;29.09;98627.25;4951003;29;20739;-63
2022/05/23 12:16:41;;;;;;;0.85;0.85;;;;;;;30.70;30.38;98623.09;5005313;28;20627;-64
2022/05/23 12:19:35;;;;;;;2.07;1.87;;;;;;;30.78;32.14;98618.69;5000457;28;20586;-64
2022/05/23 12:22:28;;;;;;;1.00;1.00;;;;;;;30.69;30.45;98620.66;5011265;28;20206;-63
2022/05/23 12:25:24;;;;;;;1.53;1.00;;;;;;;30.75;30.18;98616.44;5008972;28;20225;-64
2022/05/23 12:28:14;;;;;;;0.70;0.70;;;;;;;30.83;28.33;98614.44;5010711;28;20214;-64
2022/05/23 12:31:06;;;;;;;14.03;1.93;;;;;;;30.89;29.44;98616.31;5005903;28;20210;-63
2022/05/23 12:33:34;;;;;;;1.53;0.80;;;;;;;31.00;28.79;98605.22;5011353;28;20202;-65
2022/05/23 12:36:09;;;;;;;0.80;0.80;;;;;;;31.16;30.45;98615.47;5011607;28;20198;-63
2022/05/23 12:39:24;;;;;;;2.00;1.30;;;;;;;30.97;30.29;98607.44;5012069;28;20654;-63
2022/05/23 12:42:00;;;;;;;1.08;0.80;;;;;;;31.00;31.92;98618.44;5003714;28;20221;-64
2022/05/23 12:44:54;;;;;;;2.28;1.40;;;;;;;31.11;31.64;98620.56;5011351;28;20201;-63
2022/05/23 12:47:46;;;;;;;4.68;1.30;;;;;;;31.18;29.28;98626.69;5010666;28;20206;-65